createdAt,value
2018-01-30T00:02:17.557Z,76.20
2018-01-30T00:04:46.448Z,75.90
2018-01-30T00:07:14.582Z,75.90
2018-01-30T00:09:42.706Z,75.90
2018-01-30T00:12:10.839Z,75.80
2018-01-30T00:14:38.949Z,75.70
2018-01-30T00:17:07.078Z,75.30
2018-01-30T00:19:35.194Z,75.30
2018-01-30T00:22:03.353Z,74.80
2018-01-30T00:24:32.211Z,74.60
2018-01-30T00:27:00.351Z,74.60
2018-01-30T00:29:28.465Z,74.70
2018-01-30T00:31:56.588Z,74.10
2018-01-30T00:34:24.700Z,74.10
2018-01-30T00:36:52.827Z,74.10
2018-01-30T00:39:20.943Z,73.90
2018-01-30T00:41:49.096Z,73.80
2018-01-30T00:44:17.231Z,74.40
2018-01-30T00:46:45.358Z,73.40
2018-01-30T00:49:13.480Z,73.40
2018-01-30T00:51:41.651Z,73.30
2018-01-30T00:54:10.526Z,73.30
2018-01-30T00:56:38.641Z,73.30
2018-01-30T00:59:06.769Z,73.40
2018-01-30T01:01:34.876Z,73.40
2018-01-30T01:04:03.005Z,73.20
2018-01-30T01:06:31.882Z,73.20
2018-01-30T01:09:01.780Z,73.10
2018-01-30T01:11:29.897Z,73.10
2018-01-30T01:13:58.032Z,73.30
2018-01-30T01:16:26.159Z,73.30
2018-01-30T01:18:54.284Z,73.30
2018-01-30T01:21:23.174Z,73.10
2018-01-30T01:23:51.307Z,73.10
2018-01-30T01:26:19.409Z,73.30
2018-01-30T01:28:48.296Z,73.00
2018-01-30T01:31:16.420Z,73.00
2018-01-30T01:33:44.535Z,73.20
2018-01-30T01:36:12.660Z,73.20
2018-01-30T01:38:40.770Z,73.30
2018-01-30T01:41:08.900Z,73.30
2018-01-30T01:43:37.016Z,73.30
2018-01-30T01:46:05.137Z,73.30
2018-01-30T01:48:33.261Z,73.50
2018-01-30T01:51:01.385Z,73.60
2018-01-30T01:53:29.502Z,73.50
2018-01-30T01:55:57.635Z,73.60
2018-01-30T01:58:25.780Z,73.50
2018-01-30T02:00:54.656Z,73.60
2018-01-30T02:03:23.534Z,73.80
2018-01-30T02:05:51.668Z,73.80
2018-01-30T02:08:19.772Z,74.00
2018-01-30T02:10:47.933Z,74.10
2018-01-30T02:13:16.046Z,74.10
2018-01-30T02:15:44.926Z,75.00
2018-01-30T02:18:13.849Z,74.40
2018-01-30T02:20:42.702Z,74.60
2018-01-30T02:23:11.611Z,74.70
2018-01-30T02:25:39.717Z,74.70
2018-01-30T02:28:07.839Z,74.80
2018-01-30T02:30:36.732Z,75.00
2018-01-30T02:33:05.640Z,75.00
2018-01-30T02:35:34.519Z,75.00
2018-01-30T02:38:03.430Z,75.20
2018-01-30T02:40:31.544Z,75.20
2018-01-30T02:42:59.681Z,75.20
2018-01-30T02:45:27.792Z,75.30
2018-01-30T02:47:55.892Z,75.40
2018-01-30T02:50:24.794Z,75.40
2018-01-30T02:52:52.913Z,75.40
2018-01-30T02:55:21.069Z,75.60
2018-01-30T02:57:49.179Z,75.70
2018-01-30T03:00:17.303Z,75.90
2018-01-30T03:02:45.470Z,76.20
2018-01-30T03:05:14.331Z,76.50
2018-01-30T03:07:43.224Z,76.60
2018-01-30T03:10:12.104Z,76.70
2018-01-30T03:12:41.006Z,76.80
2018-01-30T03:15:09.885Z,77.00
2018-01-30T03:17:38.765Z,77.10
2018-01-30T03:20:06.901Z,77.00
2018-01-30T03:22:35.053Z,77.20
2018-01-30T03:25:03.913Z,77.40
2018-01-30T03:27:32.802Z,77.40
2018-01-30T03:30:01.704Z,77.60
2018-01-30T03:32:29.819Z,77.50
2018-01-30T03:34:57.938Z,77.70
2018-01-30T03:37:26.820Z,78.00
2018-01-30T03:39:55.716Z,78.10
2018-01-30T03:42:24.600Z,78.10
2018-01-30T03:44:53.493Z,78.20
2018-01-30T03:47:22.382Z,78.30
2018-01-30T03:49:51.304Z,78.50
2018-01-30T03:52:19.407Z,78.50
2018-01-30T03:54:47.572Z,78.80
2018-01-30T03:57:15.674Z,78.80
2018-01-30T03:59:43.793Z,78.80
2018-01-30T04:02:11.913Z,79.10
2018-01-30T04:04:40.023Z,79.20
2018-01-30T04:07:08.162Z,79.40
2018-01-30T04:09:36.273Z,79.50
2018-01-30T04:12:04.375Z,79.40
2018-01-30T04:14:32.511Z,80.00
2018-01-30T04:17:00.620Z,80.00
2018-01-30T04:19:28.743Z,79.90
2018-01-30T04:21:57.667Z,80.00
2018-01-30T04:24:25.804Z,80.00
2018-01-30T04:26:55.714Z,80.00
2018-01-30T04:29:24.601Z,80.00
2018-01-30T04:31:53.471Z,80.10
2018-01-30T04:34:21.598Z,80.10
2018-01-30T04:36:49.733Z,80.80
2018-01-30T04:39:18.617Z,80.10
2018-01-30T04:41:46.734Z,80.10
2018-01-30T04:44:14.847Z,80.10
2018-01-30T04:46:42.970Z,80.20
2018-01-30T04:49:11.102Z,80.10
2018-01-30T04:51:39.235Z,80.10
2018-01-30T04:54:07.351Z,80.00
2018-01-30T04:56:36.238Z,80.10
2018-01-30T04:59:05.360Z,80.70
2018-01-30T05:01:33.492Z,80.10
2018-01-30T05:04:01.631Z,80.30
2018-01-30T05:06:29.751Z,80.40
2018-01-30T05:08:58.631Z,80.40
2018-01-30T05:11:26.828Z,80.40
2018-01-30T05:13:54.926Z,80.60
2018-01-30T05:16:23.027Z,80.60
2018-01-30T05:18:51.165Z,80.60
2018-01-30T05:21:19.281Z,80.70
2018-01-30T05:23:47.415Z,80.80
2018-01-30T05:26:15.526Z,80.90
2018-01-30T05:28:43.654Z,81.00
2018-01-30T05:31:11.781Z,81.20
2018-01-30T05:33:39.906Z,81.30
2018-01-30T05:36:08.030Z,81.20
2018-01-30T05:38:36.917Z,81.70
2018-01-30T05:41:05.790Z,81.80
2018-01-30T05:43:33.914Z,81.70
2018-01-30T05:46:02.054Z,81.80
2018-01-30T05:48:30.157Z,82.10
2018-01-30T05:50:58.264Z,82.10
2018-01-30T05:53:26.383Z,82.20
2018-01-30T05:55:55.298Z,82.50
2018-01-30T05:58:23.406Z,82.40
2018-01-30T06:00:51.568Z,82.50
2018-01-30T06:03:19.655Z,82.80
2018-01-30T06:05:47.792Z,82.80
2018-01-30T06:08:15.916Z,83.00
2018-01-30T06:10:44.024Z,82.80
2018-01-30T06:13:12.170Z,83.00
2018-01-30T06:15:40.273Z,82.90
2018-01-30T06:18:08.449Z,83.00
2018-01-30T06:20:36.543Z,83.10
2018-01-30T06:23:05.425Z,83.20
2018-01-30T06:25:33.558Z,83.20
2018-01-30T06:28:01.695Z,83.10
2018-01-30T06:30:29.936Z,83.00
2018-01-30T06:32:58.040Z,83.10
2018-01-30T06:35:26.167Z,83.10
2018-01-30T06:37:54.292Z,83.10
2018-01-30T06:40:22.405Z,83.20
2018-01-30T06:42:50.525Z,83.30
2018-01-30T06:45:18.639Z,83.30
2018-01-30T06:47:46.775Z,83.30
2018-01-30T06:50:14.899Z,84.00
2018-01-30T06:52:43.035Z,83.30
2018-01-30T06:55:11.924Z,83.40
2018-01-30T06:57:40.804Z,83.30
2018-01-30T07:00:08.947Z,83.30
2018-01-30T07:02:37.060Z,83.40
2018-01-30T07:05:05.951Z,83.20
2018-01-30T07:07:34.824Z,83.30
2018-01-30T07:10:02.963Z,83.20
2018-01-30T07:12:31.074Z,83.20
2018-01-30T07:14:59.192Z,83.10
2018-01-30T07:17:27.335Z,83.10
2018-01-30T07:19:56.225Z,83.00
2018-01-30T07:22:25.119Z,82.80
2018-01-30T07:24:54.009Z,82.80
2018-01-30T07:27:22.892Z,82.60
2018-01-30T07:29:51.792Z,82.90
2018-01-30T07:32:19.946Z,82.80
2018-01-30T07:34:48.839Z,83.10
2018-01-30T07:37:16.961Z,83.10
2018-01-30T07:39:45.844Z,83.30
2018-01-30T07:42:13.971Z,83.30
2018-01-30T07:44:42.096Z,83.50
2018-01-30T07:47:10.206Z,83.50
2018-01-30T07:49:39.105Z,83.70
2018-01-30T07:52:07.995Z,83.60
2018-01-30T07:54:36.891Z,83.50
2018-01-30T07:57:05.774Z,83.50
2018-01-30T07:59:34.654Z,83.40
2018-01-30T08:02:02.776Z,83.40
2018-01-30T08:04:30.889Z,83.30
2018-01-30T08:06:59.019Z,83.30
2018-01-30T08:09:27.131Z,83.20
2018-01-30T08:11:55.257Z,83.10
2018-01-30T08:14:23.381Z,82.90
2018-01-30T08:16:51.488Z,82.90
2018-01-30T08:19:19.617Z,83.20
2018-01-30T08:21:47.749Z,82.60
2018-01-30T08:24:15.892Z,82.40
2018-01-30T08:26:44.784Z,82.20
2018-01-30T08:29:13.677Z,82.00
2018-01-30T08:31:41.803Z,81.90
2018-01-30T08:34:10.025Z,81.80
2018-01-30T08:36:38.888Z,81.40
2018-01-30T08:39:07.018Z,81.40
2018-01-30T08:41:35.152Z,81.10
2018-01-30T08:44:04.026Z,80.50
2018-01-30T08:46:32.927Z,80.60
2018-01-30T08:49:01.823Z,80.10
2018-01-30T08:51:30.708Z,80.00
2018-01-30T08:53:59.641Z,80.00
2018-01-30T08:56:27.753Z,79.90
2018-01-30T08:58:55.891Z,80.00
2018-01-30T09:01:24.004Z,79.70
2018-01-30T09:03:52.147Z,79.10
2018-01-30T09:06:20.250Z,78.80
2018-01-30T09:08:49.150Z,78.50
2018-01-30T09:11:17.289Z,78.50
2018-01-30T09:13:45.400Z,77.50
2018-01-30T09:16:14.311Z,76.60
2018-01-30T09:18:42.439Z,76.60
2018-01-30T09:21:10.577Z,76.40
2018-01-30T09:23:38.688Z,76.30
2018-01-30T09:26:07.574Z,76.30
2018-01-30T09:28:36.467Z,76.00
2018-01-30T09:31:05.347Z,76.00
2018-01-30T09:33:33.483Z,76.00
2018-01-30T09:36:01.599Z,75.80
2018-01-30T09:38:30.500Z,75.50
2018-01-30T09:40:59.520Z,75.20
2018-01-30T09:43:28.400Z,74.90
2018-01-30T09:45:56.515Z,74.80
2018-01-30T09:48:24.650Z,74.40
2018-01-30T09:50:52.779Z,73.90
2018-01-30T09:53:20.913Z,73.60
2018-01-30T09:55:49.038Z,73.50
2018-01-30T09:58:17.986Z,73.20
2018-01-30T10:00:46.129Z,73.20
2018-01-30T10:03:14.240Z,72.80
2018-01-30T10:05:42.462Z,72.30
2018-01-30T10:08:11.362Z,72.80
2018-01-30T10:10:39.468Z,72.80
2018-01-30T10:13:07.605Z,72.70
2018-01-30T10:15:35.725Z,71.90
2018-01-30T10:18:03.889Z,72.70
2018-01-30T10:20:38.885Z,73.00
2018-01-30T10:23:08.028Z,72.00
2018-01-30T10:25:36.150Z,71.20
2018-01-30T10:28:04.281Z,71.30
2018-01-30T10:30:32.420Z,71.40
2018-01-30T10:33:00.536Z,71.60
2018-01-30T10:35:29.435Z,71.30
2018-01-30T10:37:58.325Z,70.90
2018-01-30T10:40:26.518Z,70.90
2018-01-30T10:42:54.565Z,70.60
2018-01-30T10:45:23.484Z,70.10
2018-01-30T10:47:51.636Z,70.10
2018-01-30T10:50:20.546Z,70.60
2018-01-30T10:52:48.677Z,70.60
2018-01-30T10:55:16.794Z,69.70
2018-01-30T10:57:44.946Z,68.60
2018-01-30T11:00:13.063Z,67.10
2018-01-30T11:02:41.202Z,67.30
2018-01-30T11:05:09.405Z,67.80
2018-01-30T11:07:38.241Z,68.10
2018-01-30T11:10:07.137Z,68.50
2018-01-30T11:12:36.007Z,68.80
2018-01-30T11:15:04.918Z,69.30
2018-01-30T11:17:33.802Z,70.10
2018-01-30T11:20:02.719Z,70.70
2018-01-30T11:22:30.847Z,70.60
2018-01-30T11:24:58.957Z,70.70
2018-01-30T11:27:28.002Z,71.10
2018-01-30T11:29:56.149Z,71.50
2018-01-30T11:32:24.312Z,72.10
2018-01-30T11:34:54.078Z,75.00
2018-01-30T11:37:22.988Z,76.10
2018-01-30T11:39:51.878Z,76.70
2018-01-30T11:42:20.010Z,76.70
2018-01-30T11:44:48.114Z,77.30
2018-01-30T11:47:16.253Z,77.80
2018-01-30T11:49:44.386Z,78.50
2018-01-30T11:52:12.506Z,78.80
2018-01-30T11:54:40.631Z,78.90
2018-01-30T11:57:08.754Z,79.00
2018-01-30T11:59:36.900Z,79.10
2018-01-30T12:02:05.000Z,79.00
2018-01-30T12:04:33.113Z,78.90
2018-01-30T12:07:01.250Z,79.50
2018-01-30T12:09:30.121Z,79.70
2018-01-30T12:11:58.270Z,79.70
2018-01-30T12:14:26.405Z,80.00
2018-01-30T12:16:54.529Z,80.10
2018-01-30T12:19:29.695Z,79.90
2018-01-30T12:21:57.806Z,80.40
2018-01-30T12:24:25.932Z,79.50
2018-01-30T12:26:54.819Z,80.00
2018-01-30T12:29:22.948Z,80.00
2018-01-30T12:31:51.063Z,79.70
2018-01-30T12:34:19.957Z,80.40
2018-01-30T12:36:48.853Z,80.10
2018-01-30T12:39:17.746Z,79.90
2018-01-30T12:41:46.624Z,80.00
2018-01-30T12:44:15.520Z,80.30
2018-01-30T12:46:44.423Z,80.10
2018-01-30T12:49:12.543Z,80.10
2018-01-30T12:51:40.730Z,79.80
2018-01-30T12:54:08.870Z,79.40
2018-01-30T12:56:37.008Z,79.30
2018-01-30T12:59:05.131Z,79.30
2018-01-30T13:01:33.262Z,79.20
2018-01-30T13:04:01.390Z,79.10
2018-01-30T13:06:29.520Z,78.90
2018-01-30T13:08:57.728Z,78.40
2018-01-30T13:11:25.839Z,78.00
2018-01-30T13:13:54.725Z,77.60
2018-01-30T13:16:23.634Z,77.40
2018-01-30T13:18:51.771Z,77.40
2018-01-30T13:21:19.932Z,77.20
2018-01-30T13:23:48.068Z,77.00
2018-01-30T13:26:16.192Z,76.80
2018-01-30T13:28:45.078Z,76.70
2018-01-30T13:31:13.224Z,76.70
2018-01-30T13:33:41.331Z,76.50
2018-01-30T13:36:09.454Z,76.90
2018-01-30T13:38:37.594Z,76.70
2018-01-30T13:41:05.751Z,76.90
2018-01-30T13:43:34.670Z,77.00
2018-01-30T13:46:02.780Z,76.90
2018-01-30T13:48:30.927Z,76.70
2018-01-30T13:50:59.056Z,77.20
2018-01-30T13:53:27.933Z,77.10
2018-01-30T13:55:56.050Z,77.00
2018-01-30T13:58:24.171Z,77.10
2018-01-30T14:00:52.346Z,77.10
2018-01-30T14:03:20.482Z,76.70
2018-01-30T14:05:48.621Z,76.30
2018-01-30T14:08:17.508Z,76.30
2018-01-30T14:10:45.630Z,76.30
2018-01-30T14:13:13.800Z,76.30
2018-01-30T14:15:41.891Z,76.30
2018-01-30T14:18:10.080Z,76.50
2018-01-30T14:20:38.165Z,76.60
2018-01-30T14:23:07.074Z,76.10
2018-01-30T14:25:35.201Z,76.10
2018-01-30T14:28:03.336Z,76.10
2018-01-30T14:30:31.461Z,75.90
2018-01-30T14:33:00.355Z,76.10
2018-01-30T14:35:29.268Z,75.90
2018-01-30T14:37:57.395Z,75.90
2018-01-30T14:40:25.520Z,76.30
2018-01-30T14:42:53.643Z,76.40
2018-01-30T14:45:21.775Z,76.60
2018-01-30T14:47:49.923Z,77.00
2018-01-30T14:50:18.100Z,77.00
2018-01-30T14:52:46.194Z,76.90
2018-01-30T14:55:14.352Z,76.90
2018-01-30T14:57:42.490Z,77.00
2018-01-30T15:00:11.376Z,76.90
2018-01-30T15:02:39.511Z,76.90
2018-01-30T15:05:07.649Z,77.10
2018-01-30T15:07:35.812Z,77.40
2018-01-30T15:10:03.903Z,77.50
2018-01-30T15:12:32.019Z,77.50
2018-01-30T15:15:00.170Z,77.60
2018-01-30T15:17:28.302Z,77.60
2018-01-30T15:19:57.185Z,77.70
2018-01-30T15:22:26.069Z,78.10
2018-01-30T15:24:54.983Z,78.20
2018-01-30T15:27:23.118Z,78.20
2018-01-30T15:29:51.231Z,78.30
2018-01-30T15:32:19.383Z,78.40
2018-01-30T15:34:48.266Z,78.50
2018-01-30T15:37:17.179Z,78.70
2018-01-30T15:39:46.053Z,78.70
2018-01-30T15:42:14.966Z,78.60
2018-01-30T15:44:43.073Z,78.60
2018-01-30T15:47:11.243Z,78.80
2018-01-30T15:49:39.374Z,79.30
2018-01-30T15:52:07.500Z,79.10
2018-01-30T15:54:35.742Z,79.30
2018-01-30T15:57:03.842Z,79.40
2018-01-30T15:59:31.959Z,79.40
2018-01-30T16:02:00.094Z,79.30
2018-01-30T16:04:29.052Z,79.40
2018-01-30T16:06:57.893Z,79.50
2018-01-30T16:09:26.809Z,79.70
2018-01-30T16:11:54.943Z,79.50
2018-01-30T16:14:23.047Z,79.60
2018-01-30T16:16:51.188Z,79.70
2018-01-30T16:19:20.082Z,79.90
2018-01-30T16:21:48.197Z,79.80
2018-01-30T16:24:16.330Z,79.50
2018-01-30T16:26:45.242Z,80.00
2018-01-30T16:29:14.130Z,80.10
2018-01-30T16:31:42.279Z,80.00
2018-01-30T16:34:10.437Z,79.90
2018-01-30T16:36:38.563Z,79.90
2018-01-30T16:39:06.717Z,79.80
2018-01-30T16:41:34.877Z,79.90
2018-01-30T16:44:03.806Z,80.10
2018-01-30T16:46:31.935Z,80.00
2018-01-30T16:49:00.057Z,80.10
2018-01-30T16:51:28.177Z,80.10
2018-01-30T16:53:57.098Z,80.20
2018-01-30T16:56:25.223Z,80.10
2018-01-30T16:58:53.355Z,80.20
2018-01-30T17:01:21.481Z,80.30
2018-01-30T17:03:50.406Z,80.30
2018-01-30T17:06:18.569Z,80.30
2018-01-30T17:08:46.730Z,80.40
2018-01-30T17:11:14.943Z,80.50
2018-01-30T17:13:43.082Z,80.60
2018-01-30T17:16:11.963Z,80.50
2018-01-30T17:18:40.871Z,80.50
2018-01-30T17:21:08.976Z,80.50
2018-01-30T17:23:37.162Z,80.40
2018-01-30T17:26:06.130Z,80.60
2018-01-30T17:28:34.252Z,80.60
2018-01-30T17:31:03.184Z,80.50
2018-01-30T17:33:31.325Z,80.50
2018-01-30T17:36:00.276Z,80.60
2018-01-30T17:38:28.418Z,80.60
2018-01-30T17:40:56.565Z,80.60
2018-01-30T17:43:24.702Z,80.50
2018-01-30T17:45:52.852Z,80.60
2018-01-30T17:48:20.996Z,80.60
2018-01-30T17:50:49.882Z,81.20
2018-01-30T17:53:18.027Z,81.20
2018-01-30T17:55:46.178Z,81.50
2018-01-30T17:58:14.308Z,81.50
2018-01-30T18:00:42.488Z,81.40
2018-01-30T18:03:10.634Z,81.30
2018-01-30T18:05:39.501Z,82.40
2018-01-30T18:08:07.631Z,81.80
2018-01-30T18:10:35.893Z,81.80
2018-01-30T18:13:04.841Z,81.80
2018-01-30T18:15:32.967Z,81.80
2018-01-30T18:18:01.107Z,81.70
2018-01-30T18:20:29.267Z,81.80
2018-01-30T18:22:58.187Z,81.90
2018-01-30T18:25:26.318Z,81.90
2018-01-30T18:27:54.490Z,81.90
2018-01-30T18:30:22.638Z,82.10
2018-01-30T18:32:51.567Z,82.60
2018-01-30T18:35:19.668Z,82.50
2018-01-30T18:37:47.826Z,82.50
2018-01-30T18:40:16.023Z,82.50
2018-01-30T18:42:44.197Z,82.70
2018-01-30T18:45:12.317Z,82.70
2018-01-30T18:47:40.474Z,82.70
2018-01-30T18:50:08.625Z,82.80
2018-01-30T18:52:36.770Z,82.70
2018-01-30T18:55:04.989Z,82.80
2018-01-30T18:57:33.146Z,82.90
2018-01-30T19:00:01.361Z,82.90
2018-01-30T19:02:29.498Z,82.80
2018-01-30T19:04:57.749Z,82.80
2018-01-30T19:07:25.950Z,82.70
2018-01-30T19:09:54.139Z,82.80
2018-01-30T19:12:23.087Z,82.80
2018-01-30T19:14:51.234Z,82.80
2018-01-30T19:17:20.153Z,82.90
2018-01-30T19:19:48.290Z,82.90
2018-01-30T19:22:17.312Z,83.10
2018-01-30T19:24:46.226Z,83.20
2018-01-30T19:27:14.345Z,83.20
2018-01-30T19:29:43.287Z,83.30
2018-01-30T19:32:11.435Z,83.30
2018-01-30T19:34:39.775Z,83.00
2018-01-30T19:37:07.946Z,82.90
2018-01-30T19:39:36.129Z,82.90
2018-01-30T19:42:05.138Z,83.10
2018-01-30T19:44:34.045Z,82.90
2018-01-30T19:47:02.192Z,82.90
2018-01-30T19:49:31.089Z,83.10
2018-01-30T19:51:59.260Z,83.10
2018-01-30T19:54:27.416Z,83.10
2018-01-30T19:56:56.600Z,83.20
2018-01-30T19:59:24.771Z,83.10
2018-01-30T20:01:52.932Z,83.30
2018-01-30T20:04:21.110Z,83.20
2018-01-30T20:06:49.262Z,83.20
2018-01-30T20:09:17.411Z,83.20
2018-01-30T20:11:45.585Z,83.30
2018-01-30T20:14:13.747Z,83.30
2018-01-30T20:16:42.056Z,83.30
2018-01-30T20:19:10.241Z,83.20
2018-01-30T20:21:38.440Z,83.30
2018-01-30T20:24:07.521Z,83.50
2018-01-30T20:26:41.340Z,83.40
2018-01-30T20:29:09.496Z,83.40
2018-01-30T20:31:37.709Z,83.60
2018-01-30T20:34:06.612Z,83.40
2018-01-30T20:36:34.883Z,83.40
2018-01-30T20:39:03.802Z,83.60
2018-01-30T20:41:32.011Z,83.60
2018-01-30T20:44:00.146Z,83.70
2018-01-30T20:46:28.348Z,83.70
2018-01-30T20:48:56.535Z,83.80
2018-01-30T20:51:24.727Z,83.80
2018-01-30T20:53:52.924Z,83.60
2018-01-30T20:56:21.086Z,83.50
2018-01-30T20:58:50.015Z,83.60
2018-01-30T21:01:18.196Z,83.50
2018-01-30T21:03:46.367Z,83.50
2018-01-30T21:06:14.521Z,83.40
2018-01-30T21:08:42.704Z,83.50
2018-01-30T21:11:11.158Z,83.40
2018-01-30T21:13:39.356Z,83.40
2018-01-30T21:16:07.515Z,83.40
2018-01-30T21:18:35.702Z,82.90
2018-01-30T21:21:03.867Z,83.10
2018-01-30T21:23:32.002Z,83.20
2018-01-30T21:26:00.914Z,83.60
2018-01-30T21:28:29.082Z,83.60
2018-01-30T21:30:57.237Z,83.70
2018-01-30T21:33:26.163Z,83.50
2018-01-30T21:35:54.357Z,83.50
2018-01-30T21:38:22.537Z,83.30
2018-01-30T21:40:50.688Z,83.20
2018-01-30T21:43:18.904Z,83.20
2018-01-30T21:45:47.043Z,83.20
2018-01-30T21:48:15.187Z,83.30
2018-01-30T21:50:43.361Z,83.20
2018-01-30T21:53:11.602Z,83.10
2018-01-30T21:55:39.775Z,83.10
2018-01-30T21:58:08.700Z,83.30
2018-01-30T22:00:36.855Z,83.20
2018-01-30T22:03:05.729Z,83.90
2018-01-30T22:05:34.000Z,83.30
2018-01-30T22:08:02.228Z,83.40
2018-01-30T22:10:30.370Z,83.50
2018-01-30T22:12:59.372Z,83.20
2018-01-30T22:15:27.532Z,83.20
2018-01-30T22:17:56.472Z,83.10
2018-01-30T22:20:24.579Z,83.10
2018-01-30T22:22:53.530Z,82.90
2018-01-30T22:25:21.841Z,82.90
2018-01-30T22:27:50.765Z,83.40
2018-01-30T22:30:18.932Z,83.30
2018-01-30T22:32:47.069Z,83.50
2018-01-30T22:35:15.322Z,83.50
2018-01-30T22:37:43.737Z,83.50
2018-01-30T22:40:12.088Z,83.50
2018-01-30T22:42:40.215Z,83.40
2018-01-30T22:45:08.380Z,83.30
